Time;durP1;ratioP1;P1;durP2;ratioP2;P2;SDS_P1;SDS_P2;PMS_P1;PMS_P2;Temp;Humidity;BMP_temperature;BMP_pressure;BME280_temperature;BME280_humidity;BME280_pressure;Samples;Min_cycle;Max_cycle;Signal;HPM_P1;HPM_P2
2023/10/12 00:02:21;;;;;;;;;;;21.50;1.00;;;;;;4936450;29;19931;-53
2023/10/12 00:04:53;;;;;;;;;;;21.50;1.00;;;;;;4919243;29;19934;-54
2023/10/12 00:07:36;;;;;;;;;;;21.50;1.00;;;;;;4936122;29;20022;-54
2023/10/12 00:12:46;;;;;;;;;;;21.50;1.00;;;;;;4936317;29;19927;-53
2023/10/12 00:17:47;;;;;;;;;;;21.50;1.00;;;;;;4936419;29;19927;-53
2023/10/12 00:20:21;;;;;;;;;;;21.50;1.00;;;;;;4935951;29;19927;-52
2023/10/12 00:22:48;;;;;;;;;;;21.50;1.00;;;;;;4936092;29;19926;-51
2023/10/12 00:25:16;;;;;;;;;;;21.50;1.00;;;;;;4936090;29;19952;-53
2023/10/12 00:27:43;;;;;;;;;;;21.50;1.00;;;;;;4922577;29;19931;-54
2023/10/12 00:30:12;;;;;;;;;;;21.40;1.00;;;;;;4900680;29;19927;-51
2023/10/12 00:32:39;;;;;;;;;;;21.50;1.00;;;;;;4935873;29;20351;-52
2023/10/12 00:35:08;;;;;;;;;;;21.40;1.00;;;;;;4935909;29;20022;-52
2023/10/12 00:37:36;;;;;;;;;;;21.40;1.00;;;;;;4935920;29;20025;-53
2023/10/12 00:40:22;;;;;;;;;;;21.40;1.00;;;;;;4935714;29;19931;-50
2023/10/12 00:42:52;;;;;;;;;;;21.50;1.00;;;;;;4918636;29;19931;-50
2023/10/12 00:45:27;;;;;;;;;;;21.40;1.00;;;;;;4918596;29;19934;-53
2023/10/12 00:47:56;;;;;;;;;;;21.40;1.00;;;;;;4935834;29;19926;-52
2023/10/12 00:50:24;;;;;;;;;;;21.40;1.00;;;;;;4918426;29;20415;-51
2023/10/12 00:52:56;;;;;;;;;;;21.40;1.00;;;;;;4918408;29;20321;-53
2023/10/12 00:55:35;;;;;;;;;;;21.40;1.00;;;;;;4918216;29;20516;-51
2023/10/12 00:58:05;;;;;;;;;;;21.40;1.00;;;;;;4935993;29;19949;-53
2023/10/12 01:00:37;;;;;;;;;;;21.40;1.00;;;;;;4935640;29;19949;-53
2023/10/12 01:03:07;;;;;;;;;;;21.40;1.00;;;;;;4935792;29;19927;-52
2023/10/12 01:05:37;;;;;;;;;;;21.40;1.00;;;;;;4918478;29;20430;-53
2023/10/12 01:08:04;;;;;;;;;;;21.40;1.00;;;;;;4915532;29;19995;-52
2023/10/12 01:10:33;;;;;;;;;;;21.40;1.00;;;;;;4932285;29;19934;-53
2023/10/12 01:13:03;;;;;;;;;;;21.30;1.00;;;;;;4913959;29;20013;-50
2023/10/12 01:15:30;;;;;;;;;;;21.30;1.00;;;;;;4918444;29;19926;-53
2023/10/12 01:17:57;;;;;;;;;;;21.30;1.00;;;;;;4935763;29;20423;-52
2023/10/12 01:20:26;;;;;;;;;;;21.30;1.00;;;;;;4918116;29;19987;-52
2023/10/12 01:22:53;;;;;;;;;;;21.30;1.00;;;;;;4935637;29;19927;-53
2023/10/12 01:25:22;;;;;;;;;;;21.30;1.00;;;;;;4935532;29;19933;-54
2023/10/12 01:27:49;;;;;;;;;;;21.30;1.00;;;;;;4935559;29;19959;-50
2023/10/12 01:30:22;;;;;;;;;;;21.30;1.00;;;;;;4935284;29;19927;-53
2023/10/12 01:32:58;;;;;;;;;;;21.30;1.00;;;;;;4935405;29;20497;-54
2023/10/12 01:35:38;;;;;;;;;;;21.30;1.00;;;;;;4918335;29;20276;-53
2023/10/12 01:38:05;;;;;;;;;;;21.30;1.00;;;;;;4918274;29;20025;-53
2023/10/12 01:43:20;;;;;;;;;;;21.30;1.00;;;;;;4918193;29;19927;-53
2023/10/12 01:46:01;;;;;;;;;;;21.30;1.00;;;;;;4918164;29;19934;-54
2023/10/12 01:48:33;;;;;;;;;;;21.30;1.00;;;;;;4910163;29;19958;-53
2023/10/12 01:51:14;;;;;;;;;;;21.20;1.00;;;;;;4917928;29;19927;-53
2023/10/12 01:53:41;;;;;;;;;;;21.20;1.00;;;;;;4935366;29;19930;-53
2023/10/12 01:56:10;;;;;;;;;;;21.30;1.00;;;;;;4935293;29;19943;-53
2023/10/12 01:58:37;;;;;;;;;;;21.20;1.00;;;;;;4918124;29;20042;-52
2023/10/12 02:01:07;;;;;;;;;;;21.20;1.00;;;;;;4917822;29;19927;-54
2023/10/12 02:03:43;;;;;;;;;;;21.20;1.00;;;;;;4917932;29;19926;-54
2023/10/12 02:06:14;;;;;;;;;;;21.20;1.00;;;;;;4935315;29;19927;-53
2023/10/12 02:08:45;;;;;;;;;;;21.20;1.00;;;;;;4918282;29;20261;-53
2023/10/12 02:13:47;;;;;;;;;;;21.20;1.00;;;;;;4918179;29;19931;-54
2023/10/12 02:16:23;;;;;;;;;;;21.20;1.00;;;;;;4935104;29;20307;-53
2023/10/12 02:18:53;;;;;;;;;;;21.20;1.00;;;;;;4918067;29;19953;-53
2023/10/12 02:21:21;;;;;;;;;;;21.20;1.00;;;;;;4934851;29;20331;-53
2023/10/12 02:29:35;;;;;;;;;;;21.20;1.00;;;;;;4898024;29;19934;-53
2023/10/12 02:32:31;;;;;;;;;;;21.20;1.00;;;;;;4883243;29;19943;-50
2023/10/12 02:34:56;;;;;;;;;;;21.10;1.00;;;;;;4921684;29;19950;-48
2023/10/12 02:37:24;;;;;;;;;;;21.10;1.00;;;;;;4920920;29;19927;-48
2023/10/12 02:39:54;;;;;;;;;;;21.10;1.00;;;;;;4921077;29;20017;-52
2023/10/12 02:42:22;;;;;;;;;;;21.10;1.00;;;;;;4938086;29;20403;-52
2023/10/12 02:47:24;;;;;;;;;;;21.10;1.00;;;;;;4921117;29;19937;-49
2023/10/12 02:50:00;;;;;;;;;;;21.10;1.00;;;;;;4920886;29;20380;-48
2023/10/12 02:52:32;;;;;;;;;;;21.10;1.00;;;;;;4920805;29;20384;-48
2023/10/12 02:55:19;;;;;;;;;;;21.10;1.00;;;;;;4921128;29;20029;-49
2023/10/12 02:58:06;;;;;;;;;;;21.10;1.00;;;;;;4920983;29;19962;-49
2023/10/12 03:05:51;;;;;;;;;;;21.10;1.00;;;;;;4938023;29;19927;-49
2023/10/12 03:08:20;;;;;;;;;;;21.00;1.00;;;;;;4920758;29;20025;-49
2023/10/12 03:13:34;;;;;;;;;;;21.10;1.00;;;;;;4934398;29;19927;-52
2023/10/12 03:16:19;;;;;;;;;;;21.10;1.00;;;;;;4915052;29;19983;-48
2023/10/12 03:18:53;;;;;;;;;;;21.00;1.00;;;;;;4929853;29;19931;-48
2023/10/12 03:21:23;;;;;;;;;;;21.00;1.00;;;;;;4936940;29;19927;-48
2023/10/12 03:23:50;;;;;;;;;;;21.00;1.00;;;;;;4937163;29;19982;-49
2023/10/12 03:26:26;;;;;;;;;;;21.00;1.00;;;;;;4937139;29;19927;-49
2023/10/12 03:34:35;;;;;;;;;;;21.00;1.00;;;;;;4937275;29;19926;-48
2023/10/12 03:37:13;;;;;;;;;;;21.00;1.00;;;;;;4937147;29;20400;-53
2023/10/12 03:39:59;;;;;;;;;;;21.00;1.00;;;;;;4936697;29;19934;-54
2023/10/12 03:45:13;;;;;;;;;;;21.00;1.00;;;;;;4937012;29;19934;-53
2023/10/12 03:47:52;;;;;;;;;;;21.00;1.00;;;;;;4936777;29;19934;-54
2023/10/12 03:50:20;;;;;;;;;;;20.90;1.00;;;;;;4936192;29;19937;-52
2023/10/12 03:52:53;;;;;;;;;;;20.90;1.00;;;;;;4917595;29;19933;-53
2023/10/12 03:55:27;;;;;;;;;;;21.00;1.00;;;;;;4917787;29;19927;-53
2023/10/12 03:58:04;;;;;;;;;;;20.90;1.00;;;;;;4930024;29;20323;-52
2023/10/12 04:03:37;;;;;;;;;;;20.90;1.00;;;;;;4919766;29;20397;-52
2023/10/12 04:06:23;;;;;;;;;;;20.90;1.00;;;;;;4936487;29;20460;-51
2023/10/12 04:08:54;;;;;;;;;;;20.90;1.00;;;;;;4936421;29;19930;-50
2023/10/12 04:14:17;;;;;;;;;;;20.90;1.00;;;;;;4936609;29;19931;-51
2023/10/12 04:16:45;;;;;;;;;;;20.90;1.00;;;;;;4936227;29;20026;-48
2023/10/12 04:19:20;;;;;;;;;;;20.90;1.00;;;;;;4936354;29;20029;-53
2023/10/12 04:22:05;;;;;;;;;;;20.90;1.00;;;;;;4935879;29;19935;-53
2023/10/12 04:24:42;;;;;;;;;;;20.90;1.00;;;;;;4936104;29;20368;-53
2023/10/12 04:27:24;;;;;;;;;;;20.90;1.00;;;;;;4936333;29;19927;-49
2023/10/12 04:29:57;;;;;;;;;;;20.90;1.00;;;;;;4935941;29;19926;-50
2023/10/12 04:38:08;;;;;;;;;;;20.80;1.00;;;;;;4916888;29;19966;-48
2023/10/12 04:40:44;;;;;;;;;;;20.80;1.00;;;;;;4918669;29;19927;-53
2023/10/12 04:43:23;;;;;;;;;;;20.90;1.00;;;;;;4916687;29;20013;-48
2023/10/12 04:46:16;;;;;;;;;;;20.80;1.00;;;;;;4916682;29;19934;-50
2023/10/12 04:48:43;;;;;;;;;;;20.90;1.00;;;;;;4934234;29;19976;-53
2023/10/12 04:51:19;;;;;;;;;;;20.90;1.00;;;;;;4924628;29;19945;-49
2023/10/12 04:54:05;;;;;;;;;;;20.80;1.00;;;;;;4927555;29;20249;-53
2023/10/12 04:56:38;;;;;;;;;;;20.80;1.00;;;;;;4931064;29;20296;-48
2023/10/12 04:59:19;;;;;;;;;;;20.80;1.00;;;;;;4925605;29;20420;-49
2023/10/12 05:09:49;;;;;;;;;;;20.80;1.00;;;;;;4935603;29;20471;-49
2023/10/12 05:12:20;;;;;;;;;;;20.80;1.00;;;;;;4935580;29;19927;-53
2023/10/12 05:14:47;;;;;;;;;;;20.80;1.00;;;;;;4935554;29;20017;-49
2023/10/12 05:17:14;;;;;;;;;;;20.80;1.00;;;;;;4935770;29;20017;-49
2023/10/12 05:19:41;;;;;;;;;;;20.80;1.00;;;;;;4935405;29;19927;-52
2023/10/12 05:22:10;;;;;;;;;;;20.80;1.00;;;;;;4935356;29;20021;-50
2023/10/12 05:24:37;;;;;;;;;;;20.80;1.00;;;;;;4935480;29;19931;-49
2023/10/12 05:27:19;;;;;;;;;;;20.80;1.00;;;;;;4935728;29;19927;-49
2023/10/12 05:29:52;;;;;;;;;;;20.80;1.00;;;;;;4935540;29;19954;-50
2023/10/12 05:32:19;;;;;;;;;;;20.80;1.00;;;;;;4932657;29;19927;-49
2023/10/12 05:34:46;;;;;;;;;;;20.80;1.00;;;;;;4920119;29;20433;-53
2023/10/12 05:39:55;;;;;;;;;;;20.70;1.00;;;;;;4935286;29;19927;-50
2023/10/12 05:42:22;;;;;;;;;;;20.70;1.00;;;;;;4935239;29;20436;-53
2023/10/12 05:44:50;;;;;;;;;;;20.70;1.00;;;;;;4932856;29;20333;-51
2023/10/12 05:47:28;;;;;;;;;;;20.70;1.00;;;;;;4924271;29;19927;-51
2023/10/12 05:49:58;;;;;;;;;;;20.70;1.00;;;;;;4934648;29;19986;-53
2023/10/12 05:52:25;;;;;;;;;;;20.70;1.00;;;;;;4935249;29;19930;-54
2023/10/12 05:54:58;;;;;;;;;;;20.70;1.00;;;;;;4917020;29;19934;-54
2023/10/12 05:57:29;;;;;;;;;;;20.70;1.00;;;;;;4924575;29;19928;-51
2023/10/12 05:59:59;;;;;;;;;;;20.70;1.00;;;;;;4924228;29;21287;-53
2023/10/12 06:02:26;;;;;;;;;;;20.70;1.00;;;;;;4930094;29;20416;-52
2023/10/12 06:04:53;;;;;;;;;;;20.70;1.00;;;;;;4932430;29;20352;-50
2023/10/12 06:07:20;;;;;;;;;;;20.70;1.00;;;;;;4932457;29;19927;-48
2023/10/12 06:09:52;;;;;;;;;;;20.70;1.00;;;;;;4932212;29;19930;-53
2023/10/12 06:12:24;;;;;;;;;;;20.70;1.00;;;;;;4935501;29;19974;-52
2023/10/12 06:14:53;;;;;;;;;;;20.70;1.00;;;;;;4932509;29;20292;-52
2023/10/12 06:17:39;;;;;;;;;;;20.70;1.00;;;;;;4925610;29;19935;-53
2023/10/12 06:20:29;;;;;;;;;;;20.70;1.00;;;;;;4924306;29;20386;-51
2023/10/12 06:22:54;;;;;;;;;;;20.60;1.00;;;;;;4937048;29;19927;-53
2023/10/12 06:25:21;;;;;;;;;;;20.60;1.00;;;;;;4938709;29;19934;-53
2023/10/12 06:27:51;;;;;;;;;;;20.70;1.00;;;;;;4938611;29;19959;-48
2023/10/12 06:30:18;;;;;;;;;;;20.60;1.00;;;;;;4938577;29;19937;-48
2023/10/12 06:32:46;;;;;;;;;;;20.60;1.00;;;;;;4938366;29;19930;-51
2023/10/12 06:35:24;;;;;;;;;;;20.60;1.00;;;;;;4921416;29;19954;-53
2023/10/12 06:45:49;;;;;;;;;;;20.60;1.00;;;;;;4935345;29;20317;-49
2023/10/12 06:50:53;;;;;;;;;;;20.50;1.00;;;;;;4929960;29;19927;-50
2023/10/12 06:53:24;;;;;;;;;;;20.50;1.00;;;;;;4930739;29;20007;-49
2023/10/12 06:55:58;;;;;;;;;;;20.50;1.00;;;;;;4933220;29;20447;-53
2023/10/12 06:58:36;;;;;;;;;;;20.40;1.00;;;;;;4938305;29;20284;-51
2023/10/12 07:03:52;;;;;;;;;;;20.50;1.00;;;;;;4937513;29;20311;-49
2023/10/12 07:06:19;;;;;;;;;;;20.50;1.00;;;;;;4937638;29;19932;-50
2023/10/12 07:08:46;;;;;;;;;;;20.40;1.00;;;;;;4937511;29;19933;-53
2023/10/12 07:11:14;;;;;;;;;;;20.40;1.00;;;;;;4937154;29;19977;-53
2023/10/12 07:13:41;;;;;;;;;;;20.50;1.00;;;;;;4937474;29;19966;-50
2023/10/12 07:16:08;;;;;;;;;;;20.40;1.00;;;;;;4918096;29;19939;-51
2023/10/12 07:18:35;;;;;;;;;;;20.40;1.00;;;;;;4918247;29;20381;-53
2023/10/12 07:21:06;;;;;;;;;;;20.40;1.00;;;;;;4918065;29;19985;-48
2023/10/12 07:23:36;;;;;;;;;;;20.40;1.00;;;;;;4918315;29;20026;-49
2023/10/12 07:26:12;;;;;;;;;;;20.40;1.00;;;;;;4918158;29;19942;-48
2023/10/12 07:28:42;;;;;;;;;;;20.40;1.00;;;;;;4918209;29;19927;-51
2023/10/12 07:36:52;;;;;;;;;;;20.40;1.00;;;;;;4918108;29;19934;-52
2023/10/12 07:39:20;;;;;;;;;;;20.40;1.00;;;;;;4929325;29;19989;-49
2023/10/12 07:42:25;;;;;;;;;;;20.40;1.00;;;;;;4936640;29;20359;-53
2023/10/12 07:44:43;;;;;;;;;;;20.40;1.00;;;;;;4934569;29;19927;-51
2023/10/12 07:47:20;;;;;;;;;;;20.40;1.00;;;;;;4937089;29;20017;-52
2023/10/12 07:49:57;;;;;;;;;;;20.40;1.00;;;;;;4936448;29;20013;-49
2023/10/12 07:52:39;;;;;;;;;;;20.40;1.00;;;;;;4936538;29;19927;-52
2023/10/12 07:55:12;;;;;;;;;;;20.40;1.00;;;;;;4936714;29;19927;-48
2023/10/12 07:57:39;;;;;;;;;;;20.40;1.00;;;;;;4929639;29;19931;-49
2023/10/12 08:10:56;;;;;;;;;;;20.40;1.00;;;;;;4936219;29;19934;-48
2023/10/12 08:31:45;;;;;;;;;;;20.40;1.00;;;;;;4936398;29;20014;-51
2023/10/12 08:39:49;;;;;;;;;;;20.30;1.00;;;;;;4935839;29;19931;-52
2023/10/12 08:44:50;;;;;;;;;;;20.40;1.00;;;;;;4935615;29;19931;-53
2023/10/12 08:47:25;;;;;;;;;;;20.40;1.00;;;;;;4935751;29;19927;-48
2023/10/12 08:49:53;;;;;;;;;;;20.40;1.00;;;;;;4935518;29;19950;-50
2023/10/12 08:52:27;;;;;;;;;;;20.40;1.00;;;;;;4935484;29;19938;-48
2023/10/12 08:55:03;;;;;;;;;;;20.40;1.00;;;;;;4935590;29;20448;-52
2023/10/12 08:57:37;;;;;;;;;;;20.40;1.00;;;;;;4935733;29;19931;-51
2023/10/12 09:02:58;;;;;;;;;;;20.40;1.00;;;;;;4935297;29;19927;-52
2023/10/12 09:05:25;;;;;;;;;;;20.30;1.00;;;;;;4935724;29;20023;-50
2023/10/12 09:11:02;;;;;;;;;;;20.30;1.00;;;;;;4935355;29;19933;-49
2023/10/12 09:13:36;;;;;;;;;;;20.40;1.00;;;;;;4935363;29;19926;-52
2023/10/12 09:16:09;;;;;;;;;;;20.40;1.00;;;;;;4935595;29;19990;-50
2023/10/12 09:18:44;;;;;;;;;;;20.40;1.00;;;;;;4935306;29;19927;-48
2023/10/12 09:24:14;;;;;;;;;;;20.40;1.00;;;;;;4935182;29;19949;-53
2023/10/12 09:26:49;;;;;;;;;;;20.30;1.00;;;;;;4935264;29;19934;-52
2023/10/12 09:29:21;;;;;;;;;;;20.40;1.00;;;;;;4935082;29;20329;-54
2023/10/12 09:31:55;;;;;;;;;;;20.40;1.00;;;;;;4934906;29;19927;-52
2023/10/12 09:34:42;;;;;;;;;;;20.30;1.00;;;;;;4935149;29;20140;-51
2023/10/12 09:37:16;;;;;;;;;;;20.40;1.00;;;;;;4935702;29;20177;-49
2023/10/12 09:39:45;;;;;;;;;;;20.40;1.00;;;;;;4934600;29;19933;-53
2023/10/12 09:42:26;;;;;;;;;;;20.40;1.00;;;;;;4934558;29;19974;-53
2023/10/12 09:45:04;;;;;;;;;;;20.40;1.00;;;;;;4935293;29;20344;-53
2023/10/12 09:47:50;;;;;;;;;;;20.40;1.00;;;;;;4935152;29;19927;-50
2023/10/12 09:50:18;;;;;;;;;;;20.40;1.00;;;;;;4934793;29;19931;-52
2023/10/12 09:52:57;;;;;;;;;;;20.40;1.00;;;;;;4934590;29;19934;-53
2023/10/12 09:55:32;;;;;;;;;;;20.30;1.00;;;;;;4935048;29;19934;-53
2023/10/12 09:58:22;;;;;;;;;;;20.40;1.00;;;;;;4934938;29;19927;-52
2023/10/12 10:01:15;;;;;;;;;;;20.40;1.00;;;;;;4934888;29;20017;-54
2023/10/12 10:03:48;;;;;;;;;;;20.40;1.00;;;;;;4934830;29;20041;-52
2023/10/12 10:06:37;;;;;;;;;;;20.40;1.00;;;;;;4934962;29;19975;-52
2023/10/12 10:11:39;;;;;;;;;;;20.40;1.00;;;;;;4934544;29;19961;-54
2023/10/12 10:14:09;;;;;;;;;;;20.40;1.00;;;;;;4934666;29;19934;-52
2023/10/12 10:16:48;;;;;;;;;;;20.40;1.00;;;;;;4934751;29;19982;-51
2023/10/12 10:19:16;;;;;;;;;;;20.40;1.00;;;;;;4934611;29;20408;-52
2023/10/12 10:21:51;;;;;;;;;;;20.40;1.00;;;;;;4934502;29;19982;-53
2023/10/12 10:24:24;;;;;;;;;;;20.40;1.00;;;;;;4934611;29;19937;-52
2023/10/12 10:26:57;;;;;;;;;;;20.40;1.00;;;;;;4934711;29;19930;-51
2023/10/12 10:29:41;;;;;;;;;;;20.40;1.00;;;;;;4934565;29;20349;-53
2023/10/12 10:32:10;;;;;;;;;;;20.40;1.00;;;;;;4934461;29;20396;-53
2023/10/12 10:34:41;;;;;;;;;;;20.40;1.00;;;;;;4934727;29;20044;-48
2023/10/12 10:37:08;;;;;;;;;;;20.40;1.00;;;;;;4933033;29;19934;-52
2023/10/12 10:39:37;;;;;;;;;;;20.40;1.00;;;;;;4915666;29;19927;-48
2023/10/12 10:42:07;;;;;;;;;;;20.40;1.00;;;;;;4915416;29;19934;-49
2023/10/12 10:44:41;;;;;;;;;;;20.40;1.00;;;;;;4915434;29;19998;-54
2023/10/12 10:47:10;;;;;;;;;;;20.40;1.00;;;;;;4915568;29;19931;-52
2023/10/12 10:49:37;;;;;;;;;;;20.40;1.00;;;;;;4915879;29;19927;-49
2023/10/12 10:54:39;;;;;;;;;;;20.30;1.00;;;;;;4918917;29;19927;-53
2023/10/12 10:57:25;;;;;;;;;;;20.40;1.00;;;;;;4919219;29;20333;-51
2023/10/12 10:59:52;;;;;;;;;;;20.30;1.00;;;;;;4918693;29;19935;-50
2023/10/12 11:02:20;;;;;;;;;;;20.40;1.00;;;;;;4918549;29;19934;-51
2023/10/12 11:04:48;;;;;;;;;;;20.30;1.00;;;;;;4918651;29;20405;-49
2023/10/12 11:07:17;;;;;;;;;;;20.40;1.00;;;;;;4918543;29;19931;-52
2023/10/12 11:12:15;;;;;;;;;;;20.40;1.00;;;;;;4918350;29;19986;-51
2023/10/12 11:14:52;;;;;;;;;;;20.40;1.00;;;;;;4918155;29;20293;-53
2023/10/12 11:17:20;;;;;;;;;;;20.30;1.00;;;;;;4917356;29;19965;-49
2023/10/12 11:19:50;;;;;;;;;;;20.40;1.00;;;;;;4917189;29;19934;-54
2023/10/12 11:22:18;;;;;;;;;;;20.30;1.00;;;;;;4916925;29;19927;-51
2023/10/12 11:24:45;;;;;;;;;;;20.40;1.00;;;;;;4917154;29;19949;-54
2023/10/12 11:27:27;;;;;;;;;;;20.30;1.00;;;;;;4917306;29;19977;-52
2023/10/12 11:29:54;;;;;;;;;;;20.40;1.00;;;;;;4924986;29;19934;-53
2023/10/12 11:32:21;;;;;;;;;;;20.30;1.00;;;;;;4916945;29;20393;-49
2023/10/12 11:34:53;;;;;;;;;;;20.30;1.00;;;;;;4917010;29;19983;-49
2023/10/12 11:37:20;;;;;;;;;;;20.30;1.00;;;;;;4917083;29;19934;-52
2023/10/12 11:39:49;;;;;;;;;;;20.30;1.00;;;;;;4916903;29;20377;-50
2023/10/12 11:42:17;;;;;;;;;;;20.40;1.00;;;;;;4899819;29;19927;-51
2023/10/12 11:44:45;;;;;;;;;;;20.40;1.00;;;;;;4916768;29;19935;-53
2023/10/12 11:47:13;;;;;;;;;;;20.30;1.00;;;;;;4916779;29;20307;-49
2023/10/12 11:50:09;;;;;;;;;;;20.40;1.00;;;;;;4916593;29;20465;-53
2023/10/12 11:52:39;;;;;;;;;;;20.30;1.00;;;;;;4927416;29;19958;-50
2023/10/12 11:55:07;;;;;;;;;;;20.30;1.00;;;;;;4935903;29;19927;-53
2023/10/12 11:57:40;;;;;;;;;;;20.30;1.00;;;;;;4935974;29;20300;-53
2023/10/12 12:00:26;;;;;;;;;;;20.30;1.00;;;;;;4935565;29;19931;-49
2023/10/12 12:02:57;;;;;;;;;;;20.30;1.00;;;;;;4934888;29;19934;-52
2023/10/12 12:05:25;;;;;;;;;;;20.30;1.00;;;;;;4935666;29;20022;-51
2023/10/12 12:07:53;;;;;;;;;;;20.30;1.00;;;;;;4935760;29;20025;-52
2023/10/12 12:10:38;;;;;;;;;;;20.30;1.00;;;;;;4935320;29;19927;-51
2023/10/12 12:13:08;;;;;;;;;;;20.30;1.00;;;;;;4935680;29;19974;-54
2023/10/12 12:15:36;;;;;;;;;;;20.30;1.00;;;;;;4875691;29;1746861;-54
2023/10/12 12:18:10;;;;;;;;;;;20.30;1.00;;;;;;4936475;29;19931;-53
2023/10/12 12:20:39;;;;;;;;;;;20.30;1.00;;;;;;4936137;29;19982;-52
2023/10/12 12:23:10;;;;;;;;;;;20.30;1.00;;;;;;4935948;29;20015;-52
2023/10/12 12:25:40;;;;;;;;;;;20.30;1.00;;;;;;4936338;29;19930;-54
2023/10/12 12:28:07;;;;;;;;;;;20.30;1.00;;;;;;4936030;29;19933;-54
2023/10/12 12:30:36;;;;;;;;;;;20.30;1.00;;;;;;4936079;29;19927;-53
2023/10/12 12:33:23;;;;;;;;;;;20.30;1.00;;;;;;4935961;29;20002;-54
2023/10/12 12:35:59;;;;;;;;;;;20.30;1.00;;;;;;4936082;29;19926;-52
2023/10/12 12:41:05;;;;;;;;;;;20.30;1.00;;;;;;4935639;29;19927;-53
2023/10/12 12:43:35;;;;;;;;;;;20.30;1.00;;;;;;4935588;29;20407;-50
2023/10/12 12:46:02;;;;;;;;;;;20.30;1.00;;;;;;4935857;29;19949;-48
2023/10/12 12:48:29;;;;;;;;;;;20.30;1.00;;;;;;4935386;29;19927;-51
2023/10/12 12:50:59;;;;;;;;;;;20.30;1.00;;;;;;4935432;29;20307;-50
2023/10/12 12:53:26;;;;;;;;;;;20.30;1.00;;;;;;4935613;29;19931;-49
2023/10/12 12:55:53;;;;;;;;;;;20.30;1.00;;;;;;4935560;29;19927;-49
2023/10/12 12:58:23;;;;;;;;;;;20.30;1.00;;;;;;4935459;29;20026;-51
2023/10/12 13:00:52;;;;;;;;;;;20.30;1.00;;;;;;4935687;29;20414;-50
2023/10/12 13:03:20;;;;;;;;;;;20.30;1.00;;;;;;4935333;29;19927;-49
2023/10/12 13:05:47;;;;;;;;;;;20.30;1.00;;;;;;4935579;29;19927;-52
2023/10/12 13:08:16;;;;;;;;;;;20.30;1.00;;;;;;4935416;29;19926;-48
2023/10/12 13:10:44;;;;;;;;;;;20.30;1.00;;;;;;4931299;29;19931;-49
2023/10/12 13:13:12;;;;;;;;;;;20.30;1.00;;;;;;4931294;29;20444;-48
2023/10/12 13:15:42;;;;;;;;;;;20.30;1.00;;;;;;4935390;29;19926;-50
2023/10/12 13:18:15;;;;;;;;;;;20.30;1.00;;;;;;4935270;29;20389;-49
2023/10/12 13:20:49;;;;;;;;;;;20.30;1.00;;;;;;4935574;29;20356;-52
2023/10/12 13:23:21;;;;;;;;;;;20.30;1.00;;;;;;4934809;29;19927;-53
2023/10/12 13:25:48;;;;;;;;;;;20.30;1.00;;;;;;4935449;29;20042;-49
2023/10/12 13:28:16;;;;;;;;;;;20.30;1.00;;;;;;4935203;29;20400;-52
2023/10/12 13:30:43;;;;;;;;;;;20.30;1.00;;;;;;4935012;29;19934;-50
2023/10/12 13:33:13;;;;;;;;;;;20.30;1.00;;;;;;4935358;29;19966;-51
2023/10/12 13:38:11;;;;;;;;;;;20.30;1.00;;;;;;4935050;29;19927;-49
2023/10/12 13:40:38;;;;;;;;;;;20.30;1.00;;;;;;4935046;29;19927;-49
2023/10/12 13:43:14;;;;;;;;;;;20.30;1.00;;;;;;4935201;29;20470;-49
2023/10/12 13:45:47;;;;;;;;;;;20.30;1.00;;;;;;4935386;29;20178;-53
2023/10/12 13:48:17;;;;;;;;;;;20.30;1.00;;;;;;4934917;29;19930;-53
2023/10/12 13:50:47;;;;;;;;;;;20.30;1.00;;;;;;4934879;29;20055;-54
2023/10/12 13:53:15;;;;;;;;;;;20.20;1.00;;;;;;4934920;29;20428;-54
2023/10/12 13:55:47;;;;;;;;;;;20.30;1.00;;;;;;4935123;29;19935;-53
2023/10/12 13:58:14;;;;;;;;;;;20.30;1.00;;;;;;4935016;29;19934;-51
2023/10/12 14:00:42;;;;;;;;;;;20.30;1.00;;;;;;4934614;29;19927;-54
2023/10/12 14:03:17;;;;;;;;;;;20.30;1.00;;;;;;4934573;29;19954;-54
2023/10/12 14:05:44;;;;;;;;;;;20.30;1.00;;;;;;4935006;29;20291;-52
2023/10/12 14:08:12;;;;;;;;;;;20.20;1.00;;;;;;4927960;29;19927;-54
2023/10/12 14:10:42;;;;;;;;;;;20.20;1.00;;;;;;4915670;29;19978;-53
2023/10/12 14:13:09;;;;;;;;;;;20.20;1.00;;;;;;4915441;29;19962;-51
2023/10/12 14:15:36;;;;;;;;;;;20.20;1.00;;;;;;4915696;29;19927;-54
2023/10/12 14:18:10;;;;;;;;;;;20.20;1.00;;;;;;4915550;29;19956;-51
2023/10/12 14:20:39;;;;;;;;;;;20.30;1.00;;;;;;4915660;29;19927;-52
2023/10/12 14:23:05;;;;;;;;;;;20.20;1.00;;;;;;4915862;29;19927;-53
2023/10/12 14:25:37;;;;;;;;;;;20.20;1.00;;;;;;4917530;29;20433;-48
2023/10/12 14:28:05;;;;;;;;;;;20.20;1.00;;;;;;4919353;29;19927;-49
2023/10/12 14:30:33;;;;;;;;;;;20.20;1.00;;;;;;4919309;29;19953;-48
2023/10/12 14:33:06;;;;;;;;;;;20.20;1.00;;;;;;4919101;29;20384;-54
2023/10/12 14:35:39;;;;;;;;;;;20.20;1.00;;;;;;4918957;29;19935;-52
2023/10/12 14:38:13;;;;;;;;;;;20.20;1.00;;;;;;4919172;29;19934;-50
2023/10/12 14:40:42;;;;;;;;;;;20.20;1.00;;;;;;4918958;29;19955;-53
2023/10/12 14:43:13;;;;;;;;;;;20.20;1.00;;;;;;4918798;29;19927;-51
2023/10/12 14:45:48;;;;;;;;;;;20.20;1.00;;;;;;4919009;29;19927;-52
2023/10/12 14:48:16;;;;;;;;;;;20.20;1.00;;;;;;4918942;29;19934;-52
2023/10/12 14:50:45;;;;;;;;;;;20.20;1.00;;;;;;4918505;29;19966;-54
2023/10/12 14:53:15;;;;;;;;;;;20.20;1.00;;;;;;4918759;29;19931;-53
2023/10/12 14:55:43;;;;;;;;;;;20.20;1.00;;;;;;4919024;29;19935;-53
2023/10/12 14:58:13;;;;;;;;;;;20.20;1.00;;;;;;4918936;29;20397;-51
2023/10/12 15:00:43;;;;;;;;;;;20.20;1.00;;;;;;4918840;29;19931;-54
2023/10/12 15:03:11;;;;;;;;;;;20.20;1.00;;;;;;4918434;29;19934;-52
2023/10/12 15:05:38;;;;;;;;;;;20.20;1.00;;;;;;4918646;29;20018;-54
2023/10/12 15:08:07;;;;;;;;;;;20.20;1.00;;;;;;4918770;29;20021;-52
2023/10/12 15:10:40;;;;;;;;;;;20.20;1.00;;;;;;4918533;29;20025;-50
2023/10/12 15:13:13;;;;;;;;;;;20.20;1.00;;;;;;4918687;29;20283;-54
2023/10/12 15:15:41;;;;;;;;;;;20.20;1.00;;;;;;4918333;29;19966;-53
2023/10/12 15:18:09;;;;;;;;;;;20.20;1.00;;;;;;4918467;29;19933;-52
2023/10/12 15:20:36;;;;;;;;;;;20.20;1.00;;;;;;4918289;29;19935;-53
2023/10/12 15:23:03;;;;;;;;;;;20.20;1.00;;;;;;4918332;29;19934;-53
2023/10/12 15:25:30;;;;;;;;;;;20.20;1.00;;;;;;4918308;29;20393;-52
2023/10/12 15:27:57;;;;;;;;;;;20.20;1.00;;;;;;4918306;29;19928;-52
2023/10/12 15:30:23;;;;;;;;;;;20.20;1.00;;;;;;4918056;29;20369;-53
2023/10/12 15:32:50;;;;;;;;;;;20.20;1.00;;;;;;4918022;29;19927;-52
2023/10/12 15:35:23;;;;;;;;;;;20.20;1.00;;;;;;4918094;29;19927;-54
2023/10/12 15:38:02;;;;;;;;;;;20.20;1.00;;;;;;4917983;29;19927;-51
2023/10/12 15:40:29;;;;;;;;;;;20.20;1.00;;;;;;4917898;29;19935;-51
2023/10/12 15:43:04;;;;;;;;;;;20.20;1.00;;;;;;4917786;29;19938;-50
2023/10/12 15:45:35;;;;;;;;;;;20.20;1.00;;;;;;4917715;29;19927;-49
2023/10/12 15:48:03;;;;;;;;;;;20.20;1.00;;;;;;4918051;29;19973;-48
2023/10/12 15:50:31;;;;;;;;;;;20.20;1.00;;;;;;4925535;29;19934;-50
2023/10/12 15:52:57;;;;;;;;;;;20.20;1.00;;;;;;4917515;29;20027;-48
2023/10/12 15:55:25;;;;;;;;;;;20.20;1.00;;;;;;4917815;29;19931;-50
2023/10/12 15:57:52;;;;;;;;;;;20.20;1.00;;;;;;4917458;29;19934;-52
2023/10/12 16:00:24;;;;;;;;;;;20.20;1.00;;;;;;4917124;29;20013;-50
2023/10/12 16:02:50;;;;;;;;;;;20.20;1.00;;;;;;4916137;29;19927;-53
2023/10/12 16:05:17;;;;;;;;;;;20.20;1.00;;;;;;4917385;29;20018;-53
2023/10/12 16:07:44;;;;;;;;;;;20.20;1.00;;;;;;4916788;29;19927;-50
2023/10/12 16:10:12;;;;;;;;;;;20.20;1.00;;;;;;4916656;29;19933;-50
2023/10/12 16:12:39;;;;;;;;;;;20.20;1.00;;;;;;4915738;29;19950;-49
2023/10/12 16:15:08;;;;;;;;;;;20.10;1.00;;;;;;4916875;29;20039;-48
2023/10/12 16:17:36;;;;;;;;;;;20.20;1.00;;;;;;4915839;29;20401;-49
2023/10/12 16:20:05;;;;;;;;;;;20.20;1.00;;;;;;4916220;29;19942;-49
2023/10/12 16:22:32;;;;;;;;;;;20.10;1.00;;;;;;4915565;29;19954;-50
2023/10/12 16:25:08;;;;;;;;;;;20.10;1.00;;;;;;4915948;29;20393;-48
2023/10/12 16:27:35;;;;;;;;;;;20.10;1.00;;;;;;4915406;29;19934;-49
2023/10/12 16:30:09;;;;;;;;;;;20.10;1.00;;;;;;4916027;29;19949;-52
2023/10/12 16:32:36;;;;;;;;;;;20.10;1.00;;;;;;4915846;29;19927;-48
2023/10/12 16:35:05;;;;;;;;;;;20.10;1.00;;;;;;4916495;29;20008;-49
2023/10/12 16:37:32;;;;;;;;;;;20.10;1.00;;;;;;4917025;29;19927;-48
2023/10/12 16:39:58;;;;;;;;;;;20.10;1.00;;;;;;4924911;29;19955;-49
2023/10/12 16:42:25;;;;;;;;;;;20.10;1.00;;;;;;4917083;29;19927;-53
2023/10/12 16:44:52;;;;;;;;;;;20.10;1.00;;;;;;4916610;29;19934;-54
2023/10/12 16:47:19;;;;;;;;;;;20.10;1.00;;;;;;4916448;29;20146;-54
2023/10/12 16:49:45;;;;;;;;;;;20.10;1.00;;;;;;4916615;29;19927;-53
2023/10/12 16:52:12;;;;;;;;;;;20.10;1.00;;;;;;4916774;29;19926;-53
2023/10/12 16:54:40;;;;;;;;;;;20.10;1.00;;;;;;4916495;29;20377;-53
2023/10/12 16:57:07;;;;;;;;;;;20.10;1.00;;;;;;4916629;29;19935;-53
2023/10/12 16:59:34;;;;;;;;;;;20.10;1.00;;;;;;4916370;29;19962;-51
2023/10/12 17:02:01;;;;;;;;;;;20.10;1.00;;;;;;4919772;29;20301;-50
2023/10/12 17:04:28;;;;;;;;;;;20.10;1.00;;;;;;4935399;29;19931;-53
2023/10/12 17:06:54;;;;;;;;;;;20.10;1.00;;;;;;4935385;29;19935;-51
2023/10/12 17:09:22;;;;;;;;;;;20.10;1.00;;;;;;4935525;29;20009;-52
2023/10/12 17:11:50;;;;;;;;;;;20.10;1.00;;;;;;4935156;29;20381;-53